createdAt,value
2023-02-11T00:00:16.896Z,38.03
2023-02-11T00:02:46.113Z,45.83
2023-02-11T00:05:14.856Z,39.80
2023-02-11T00:07:42.140Z,44.55
2023-02-11T00:10:09.546Z,44.47
2023-02-11T00:12:36.907Z,42.00
2023-02-11T00:15:04.376Z,44.95
2023-02-11T00:17:32.400Z,39.90
2023-02-11T00:19:59.508Z,40.88
2023-02-11T00:22:26.525Z,38.38
2023-02-11T00:24:53.560Z,42.85
2023-02-11T00:27:20.587Z,40.75
2023-02-11T00:29:47.596Z,42.30
2023-02-11T00:32:14.614Z,42.33
2023-02-11T00:34:41.609Z,47.17
2023-02-11T00:37:08.835Z,39.45
2023-02-11T00:39:35.832Z,39.00
2023-02-11T00:42:02.867Z,41.22
2023-02-11T00:44:29.892Z,44.33
2023-02-11T00:46:56.901Z,43.20
2023-02-11T00:49:25.191Z,38.22
2023-02-11T00:51:52.247Z,42.05
2023-02-11T00:54:19.247Z,43.17
2023-02-11T00:56:46.253Z,41.95
2023-02-11T00:59:13.252Z,41.38
2023-02-11T01:01:40.372Z,39.75
2023-02-11T01:04:07.481Z,43.88
2023-02-11T01:06:34.505Z,37.13
2023-02-11T01:09:01.521Z,40.67
2023-02-11T01:11:28.557Z,40.53
2023-02-11T01:13:55.567Z,37.25
2023-02-11T01:16:22.727Z,45.45
2023-02-11T01:18:49.838Z,38.90
2023-02-11T01:21:16.947Z,37.03
2023-02-11T01:23:43.965Z,36.40
2023-02-11T01:26:10.981Z,38.92
2023-02-11T01:28:38.349Z,34.58
2023-02-11T01:31:05.461Z,36.63
2023-02-11T01:33:32.475Z,35.40
2023-02-11T01:36:03.266Z,36.15
2023-02-11T01:38:30.356Z,37.47
2023-02-11T01:40:59.043Z,39.22
2023-02-11T01:43:27.250Z,35.10
2023-02-11T01:45:58.011Z,32.78
2023-02-11T01:48:28.157Z,35.33
2023-02-11T01:50:57.781Z,39.65
2023-02-11T01:53:43.725Z,40.70
2023-02-11T01:56:29.622Z,34.85
2023-02-11T01:59:01.633Z,35.78
2023-02-11T02:01:29.676Z,36.92
2023-02-11T02:04:00.285Z,35.45
2023-02-11T02:06:30.639Z,43.20
2023-02-11T02:09:02.072Z,37.05
2023-02-11T02:11:29.113Z,37.05
2023-02-11T02:13:56.171Z,37.47
2023-02-11T02:16:27.039Z,35.13
2023-02-11T02:19:04.165Z,36.45
2023-02-11T02:21:50.115Z,37.25
2023-02-11T02:24:49.619Z,36.17
2023-02-11T02:27:38.756Z,37.45
2023-02-11T02:30:30.888Z,44.03
2023-02-11T02:33:21.698Z,34.58
2023-02-11T02:35:57.670Z,32.72
2023-02-11T02:38:42.728Z,31.88
2023-02-11T02:41:14.578Z,43.25
2023-02-11T02:43:43.203Z,32.78
2023-02-11T02:46:30.615Z,29.67
2023-02-11T02:48:58.026Z,32.15
2023-02-11T02:51:43.614Z,32.30
2023-02-11T02:54:13.633Z,29.70
2023-02-11T02:56:49.693Z,30.48
2023-02-11T02:59:16.751Z,32.80
2023-02-11T03:02:19.135Z,30.55
2023-02-11T03:04:48.900Z,28.55
2023-02-11T03:07:23.799Z,29.00
2023-02-11T03:09:58.933Z,29.38
2023-02-11T03:12:28.297Z,27.20
2023-02-11T03:14:55.584Z,30.08
2023-02-11T03:17:24.385Z,28.92
2023-02-11T03:19:52.354Z,29.70
2023-02-11T03:22:32.657Z,27.80
2023-02-11T03:25:01.264Z,26.40
2023-02-11T03:27:31.838Z,30.45
2023-02-11T03:30:06.235Z,26.60
2023-02-11T03:32:37.036Z,26.80
2023-02-11T03:35:11.033Z,28.40
2023-02-11T03:37:41.206Z,26.73
2023-02-11T03:40:10.305Z,29.33
2023-02-11T03:42:40.826Z,26.60
2023-02-11T03:45:13.022Z,27.90
2023-02-11T03:47:41.945Z,25.88
2023-02-11T03:50:09.689Z,25.58
2023-02-11T03:52:37.781Z,24.98
2023-02-11T03:55:08.393Z,24.50
2023-02-11T03:57:35.471Z,24.92
2023-02-11T04:00:02.645Z,24.75
2023-02-11T04:02:34.154Z,22.00
2023-02-11T04:05:01.450Z,24.40
2023-02-11T04:07:28.659Z,22.75
2023-02-11T04:09:55.756Z,24.67
2023-02-11T04:12:23.060Z,22.92
2023-02-11T04:14:50.102Z,23.25
2023-02-11T04:17:17.473Z,25.15
2023-02-11T04:19:44.450Z,21.92
2023-02-11T04:22:12.641Z,24.20
2023-02-11T04:24:39.770Z,23.10
2023-02-11T04:27:06.837Z,23.60
2023-02-11T04:29:33.889Z,26.75
2023-02-11T04:32:01.043Z,24.60
2023-02-11T04:34:28.178Z,24.08
2023-02-11T04:36:55.265Z,23.83
2023-02-11T04:39:22.287Z,23.83
2023-02-11T04:41:49.298Z,27.48
2023-02-11T04:44:16.393Z,26.02
2023-02-11T04:46:43.417Z,24.63
2023-02-11T04:49:13.456Z,26.33
2023-02-11T04:51:40.560Z,29.35
2023-02-11T04:54:07.829Z,24.85
2023-02-11T04:56:34.872Z,25.90
2023-02-11T04:59:01.886Z,26.08
2023-02-11T05:01:28.993Z,26.48
2023-02-11T05:03:56.098Z,25.48
2023-02-11T05:06:23.293Z,26.60
2023-02-11T05:08:50.292Z,26.25
2023-02-11T05:11:19.214Z,28.60
2023-02-11T05:13:46.695Z,23.73
2023-02-11T05:16:13.806Z,25.85
2023-02-11T05:18:44.557Z,27.25
2023-02-11T05:21:13.306Z,27.38
2023-02-11T05:23:40.900Z,23.55
2023-02-11T05:26:08.426Z,24.77
2023-02-11T05:28:35.821Z,25.00
2023-02-11T05:31:03.073Z,26.20
2023-02-11T05:33:30.188Z,24.00
2023-02-11T05:36:01.034Z,27.27
2023-02-11T05:38:28.238Z,24.80
2023-02-11T05:40:55.596Z,28.17
2023-02-11T05:43:22.617Z,25.23
2023-02-11T05:45:49.953Z,25.95
2023-02-11T05:48:17.778Z,27.48
2023-02-11T05:50:44.994Z,26.15
2023-02-11T05:53:12.309Z,24.30
2023-02-11T05:55:39.744Z,24.00
2023-02-11T05:58:07.860Z,27.98
2023-02-11T06:00:35.411Z,23.35
2023-02-11T06:03:04.283Z,23.75
2023-02-11T06:05:31.812Z,23.17
2023-02-11T06:07:58.962Z,23.92
2023-02-11T06:10:26.303Z,25.08
2023-02-11T06:12:53.349Z,22.77
2023-02-11T06:15:20.368Z,20.88
2023-02-11T06:17:47.544Z,26.33
2023-02-11T06:20:14.672Z,22.08
2023-02-11T06:22:41.795Z,23.25
2023-02-11T06:25:09.096Z,21.60
2023-02-11T06:27:36.121Z,22.45
2023-02-11T06:30:03.293Z,22.73
2023-02-11T06:32:43.280Z,20.88
2023-02-11T06:35:12.641Z,23.77
2023-02-11T06:37:40.077Z,23.60
2023-02-11T06:40:07.608Z,21.30
2023-02-11T06:42:36.045Z,22.85
2023-02-11T06:45:03.324Z,24.35
2023-02-11T06:47:30.405Z,24.17
2023-02-11T06:49:57.485Z,20.83
2023-02-11T06:52:24.511Z,20.95
2023-02-11T06:54:51.578Z,19.58
2023-02-11T06:57:18.662Z,18.75
2023-02-11T06:59:45.717Z,24.83
2023-02-11T07:02:13.825Z,24.52
2023-02-11T07:04:40.897Z,22.45
2023-02-11T07:07:08.015Z,22.33
2023-02-11T07:09:35.041Z,20.92
2023-02-11T07:12:02.133Z,23.33
2023-02-11T07:14:29.215Z,22.10
2023-02-11T07:16:56.232Z,21.98
2023-02-11T07:19:23.243Z,21.33
2023-02-11T07:21:50.247Z,23.25
2023-02-11T07:24:17.331Z,20.75
2023-02-11T07:26:44.752Z,21.85
2023-02-11T07:29:11.809Z,21.35
2023-02-11T07:31:39.035Z,20.55
2023-02-11T07:34:06.074Z,21.13
2023-02-11T07:36:33.219Z,21.02
2023-02-11T07:39:00.573Z,19.15
2023-02-11T07:41:27.877Z,18.95
2023-02-11T07:43:55.140Z,22.45
2023-02-11T07:46:23.436Z,19.65
2023-02-11T07:48:50.500Z,20.00
2023-02-11T07:51:17.562Z,20.02
2023-02-11T07:53:44.813Z,23.13
2023-02-11T07:56:12.792Z,19.77
2023-02-11T07:58:42.074Z,18.58
2023-02-11T08:01:11.048Z,20.50
2023-02-11T08:03:38.708Z,18.77
2023-02-11T08:06:10.192Z,21.08
2023-02-11T08:08:37.413Z,18.83
2023-02-11T08:11:11.604Z,17.23
2023-02-11T08:13:38.700Z,19.20
2023-02-11T08:16:05.969Z,21.45
2023-02-11T08:18:33.722Z,19.98
2023-02-11T08:21:07.555Z,19.92
2023-02-11T08:26:03.012Z,23.20
2023-02-11T08:28:30.119Z,42.88
2023-02-11T08:30:57.251Z,30.63
2023-02-11T08:33:24.270Z,22.77
2023-02-11T08:35:51.452Z,23.45
2023-02-11T08:38:18.469Z,22.60
2023-02-11T08:40:45.538Z,19.95
2023-02-11T08:43:12.580Z,24.45
2023-02-11T08:45:39.603Z,21.30
2023-02-11T08:48:06.699Z,24.25
2023-02-11T08:50:34.189Z,25.58
2023-02-11T08:53:01.206Z,22.98
2023-02-11T08:55:28.261Z,22.73
2023-02-11T08:57:56.695Z,20.95
2023-02-11T09:00:23.814Z,22.52
2023-02-11T09:02:50.820Z,21.83
2023-02-11T09:05:17.859Z,24.23
2023-02-11T09:07:44.907Z,24.90
2023-02-11T09:10:12.016Z,23.70
2023-02-11T09:12:39.036Z,23.15
2023-02-11T09:15:06.555Z,22.83
2023-02-11T09:17:33.617Z,25.98
2023-02-11T09:20:00.626Z,23.60
2023-02-11T09:22:28.043Z,22.45
2023-02-11T09:24:55.093Z,22.70
2023-02-11T09:27:22.177Z,27.63
2023-02-11T09:29:49.281Z,24.48
2023-02-11T09:32:16.464Z,22.15
2023-02-11T09:34:43.607Z,26.10
2023-02-11T09:37:10.590Z,25.17
2023-02-11T09:39:37.596Z,26.17
2023-02-11T09:42:07.432Z,22.75
2023-02-11T09:44:35.615Z,24.15
2023-02-11T09:47:05.017Z,25.05
2023-02-11T09:49:35.696Z,24.58
2023-02-11T09:52:05.680Z,26.60
2023-02-11T09:54:36.096Z,23.10
2023-02-11T09:57:03.358Z,21.52
2023-02-11T09:59:30.497Z,23.73
2023-02-11T10:02:06.857Z,22.63
2023-02-11T10:04:42.913Z,27.42
2023-02-11T10:07:19.855Z,23.90
2023-02-11T10:09:49.739Z,25.73
2023-02-11T10:12:49.239Z,25.08
2023-02-11T10:15:19.112Z,25.58
2023-02-11T10:18:04.612Z,29.40
2023-02-11T10:20:39.297Z,23.70
2023-02-11T10:23:21.852Z,25.27
2023-02-11T10:25:54.575Z,23.63
2023-02-11T10:28:24.607Z,25.33
2023-02-11T10:31:11.369Z,25.13
2023-02-11T10:33:41.165Z,31.15
2023-02-11T10:36:08.745Z,25.83
2023-02-11T10:38:37.515Z,25.05
2023-02-11T10:41:04.835Z,22.75
2023-02-11T10:43:32.647Z,23.83
2023-02-11T10:46:00.390Z,27.70
2023-02-11T10:48:39.301Z,25.98
2023-02-11T10:51:26.171Z,24.63
2023-02-11T10:54:05.372Z,25.08
2023-02-11T10:56:35.027Z,25.33
2023-02-11T10:59:02.123Z,25.55
2023-02-11T11:01:42.594Z,28.55
2023-02-11T11:04:27.551Z,26.00
2023-02-11T11:06:54.734Z,26.05
2023-02-11T11:09:30.531Z,26.83
2023-02-11T11:11:57.741Z,25.45
2023-02-11T11:14:28.820Z,28.77
2023-02-11T11:16:56.206Z,28.75
2023-02-11T11:19:24.599Z,24.63
2023-02-11T11:21:55.745Z,26.05
2023-02-11T11:24:26.955Z,28.52
2023-02-11T11:26:56.298Z,24.23
2023-02-11T11:29:26.800Z,23.73
2023-02-11T11:31:59.335Z,24.10
2023-02-11T11:34:30.766Z,21.65
2023-02-11T11:36:58.776Z,24.45
2023-02-11T11:39:28.080Z,27.17
2023-02-11T11:41:59.745Z,23.42
2023-02-11T11:44:31.136Z,23.80
2023-02-11T11:47:18.498Z,23.13
2023-02-11T11:49:45.536Z,23.58
2023-02-11T11:52:18.556Z,28.52
2023-02-11T11:54:48.774Z,22.17
2023-02-11T11:57:18.689Z,23.27
2023-02-11T11:59:46.132Z,22.90
2023-02-11T12:02:35.000Z,24.60
2023-02-11T12:05:10.561Z,25.38
2023-02-11T12:07:44.585Z,22.70
2023-02-11T12:10:32.429Z,26.55
2023-02-11T12:13:10.759Z,24.88
2023-02-11T12:15:47.248Z,22.98
2023-02-11T12:18:21.121Z,26.63
2023-02-11T12:20:58.106Z,28.48
2023-02-11T12:23:28.179Z,24.88
2023-02-11T12:26:01.268Z,22.40
2023-02-11T12:28:54.345Z,24.37
2023-02-11T12:31:30.614Z,26.40
2023-02-11T12:34:06.835Z,28.27
2023-02-11T12:36:55.173Z,23.98
2023-02-11T12:39:25.267Z,23.25
2023-02-11T12:42:31.056Z,25.20
2023-02-11T12:45:19.159Z,23.95
2023-02-11T12:48:06.488Z,21.95
2023-02-11T12:50:55.063Z,25.42
2023-02-11T12:53:28.773Z,27.92
2023-02-11T12:55:58.541Z,25.75
2023-02-11T12:58:42.866Z,28.95
2023-02-11T13:01:16.462Z,24.27
2023-02-11T13:03:43.498Z,26.13
2023-02-11T13:06:14.230Z,30.85
2023-02-11T13:08:43.276Z,22.50
2023-02-11T13:11:19.555Z,22.52
2023-02-11T13:13:46.538Z,25.38
2023-02-11T13:16:29.547Z,23.85
2023-02-11T13:19:16.854Z,23.67
2023-02-11T13:21:46.931Z,23.42
2023-02-11T13:24:13.934Z,21.42
2023-02-11T13:26:51.580Z,22.08
2023-02-11T13:29:33.684Z,23.60
2023-02-11T13:32:08.491Z,20.75
2023-02-11T13:34:41.379Z,23.85
2023-02-11T13:37:22.931Z,26.35
2023-02-11T13:40:03.766Z,23.08
2023-02-11T13:42:31.751Z,26.80
2023-02-11T13:44:58.866Z,22.33
2023-02-11T13:47:33.779Z,24.25
2023-02-11T13:50:01.355Z,24.13
2023-02-11T13:52:33.019Z,19.20
2023-02-11T13:55:06.404Z,21.55
2023-02-11T13:57:34.425Z,21.02
2023-02-11T14:00:20.343Z,26.52
2023-02-11T14:03:26.152Z,21.40
2023-02-11T14:06:30.210Z,21.02
2023-02-11T14:08:59.938Z,21.10
2023-02-11T14:11:33.183Z,19.60
2023-02-11T14:14:03.462Z,23.17
2023-02-11T14:16:37.947Z,19.95
2023-02-11T14:19:06.140Z,21.70
2023-02-11T14:21:37.864Z,21.38
2023-02-11T14:24:05.142Z,20.58
2023-02-11T14:26:41.809Z,22.48
2023-02-11T14:29:16.599Z,22.73
2023-02-11T14:31:49.569Z,21.27
2023-02-11T14:34:27.335Z,18.60
2023-02-11T14:36:59.468Z,24.65
2023-02-11T14:39:33.226Z,25.02
2023-02-11T14:42:01.411Z,21.58
2023-02-11T14:44:29.874Z,25.17
2023-02-11T14:46:57.928Z,22.95
2023-02-11T14:49:27.288Z,31.27
2023-02-11T14:52:00.896Z,26.40
2023-02-11T14:54:29.122Z,28.80
2023-02-11T14:57:22.596Z,27.13
2023-02-11T14:59:59.209Z,20.58
2023-02-11T15:02:29.504Z,29.05
2023-02-11T15:05:14.121Z,25.85
2023-02-11T15:07:44.356Z,28.50
2023-02-11T15:10:17.440Z,28.02
2023-02-11T15:12:48.973Z,20.23
2023-02-11T15:15:16.652Z,28.30
2023-02-11T15:17:44.417Z,29.88
2023-02-11T15:20:19.336Z,28.45
2023-02-11T15:22:46.912Z,27.40
2023-02-11T15:25:17.051Z,26.10
2023-02-11T15:27:45.275Z,28.17
2023-02-11T15:30:24.925Z,31.20
2023-02-11T15:32:58.637Z,26.15
2023-02-11T15:35:36.524Z,27.65
2023-02-11T15:38:04.231Z,29.83
2023-02-11T15:40:33.511Z,25.70
2023-02-11T15:43:02.681Z,31.92
2023-02-11T15:45:34.649Z,29.33
2023-02-11T15:48:10.573Z,29.55
2023-02-11T15:50:38.096Z,27.58
2023-02-11T15:53:12.890Z,27.75
2023-02-11T15:55:41.876Z,30.73
2023-02-11T15:58:10.037Z,28.65
2023-02-11T16:00:46.292Z,29.20
2023-02-11T16:03:23.982Z,31.38
2023-02-11T16:05:51.429Z,32.50
2023-02-11T16:08:26.099Z,30.85
2023-02-11T16:11:03.307Z,32.30
2023-02-11T16:13:33.592Z,30.50
2023-02-11T16:16:03.987Z,31.70
2023-02-11T16:18:38.779Z,29.25
2023-02-11T16:21:08.241Z,30.15
2023-02-11T16:23:37.253Z,46.75
2023-02-11T16:26:09.027Z,43.92
2023-02-11T16:28:37.210Z,34.40
2023-02-11T16:31:05.575Z,29.90
2023-02-11T16:33:32.893Z,33.38
2023-02-11T16:36:02.599Z,32.83
2023-02-11T16:38:30.457Z,33.67
2023-02-11T16:41:00.995Z,30.15
2023-02-11T16:43:28.325Z,32.67
2023-02-11T16:45:58.734Z,32.42
2023-02-11T16:48:29.282Z,31.20
2023-02-11T16:50:56.636Z,33.15
2023-02-11T16:53:24.773Z,30.00
2023-02-11T16:55:52.775Z,33.38
2023-02-11T16:58:20.194Z,35.30
2023-02-11T17:00:48.157Z,33.20
2023-02-11T17:03:28.229Z,32.00
2023-02-11T17:05:56.924Z,31.58
2023-02-11T17:08:24.001Z,32.47
2023-02-11T17:10:51.341Z,38.28
2023-02-11T17:13:18.555Z,32.15
2023-02-11T17:15:45.702Z,32.63
2023-02-11T17:18:14.387Z,32.35
2023-02-11T17:20:41.737Z,35.42
2023-02-11T17:23:08.867Z,37.45
2023-02-11T17:25:38.926Z,36.88
2023-02-11T17:28:06.613Z,36.08
2023-02-11T17:30:33.834Z,34.97
2023-02-11T17:33:00.859Z,35.95
2023-02-11T17:35:27.888Z,36.03
2023-02-11T17:37:55.008Z,37.78
2023-02-11T17:40:22.135Z,38.63
2023-02-11T17:42:49.138Z,36.55
2023-02-11T17:45:16.196Z,36.97
2023-02-11T17:47:43.302Z,38.65
2023-02-11T17:50:10.522Z,38.30
2023-02-11T17:52:37.806Z,37.80
2023-02-11T17:55:05.495Z,36.45
2023-02-11T17:57:32.728Z,38.80
2023-02-11T17:59:59.743Z,39.45
2023-02-11T18:02:26.805Z,40.60
2023-02-11T18:04:57.460Z,37.15
2023-02-11T18:07:24.596Z,35.20
2023-02-11T18:09:51.743Z,34.75
2023-02-11T18:12:25.084Z,38.08
2023-02-11T18:14:58.176Z,38.70
2023-02-11T18:17:25.416Z,37.45
2023-02-11T18:19:55.452Z,35.53
2023-02-11T18:22:22.544Z,36.33
2023-02-11T18:24:55.472Z,39.15
2023-02-11T18:27:22.978Z,36.72
2023-02-11T18:29:50.137Z,36.35
2023-02-11T18:32:17.131Z,38.50
2023-02-11T18:34:44.423Z,34.17
2023-02-11T18:37:13.253Z,31.83
2023-02-11T18:39:40.850Z,33.55
2023-02-11T18:42:07.821Z,39.00
2023-02-11T18:44:34.870Z,38.35
2023-02-11T18:47:01.889Z,35.80
2023-02-11T18:49:28.954Z,34.50
2023-02-11T18:51:58.223Z,37.20
2023-02-11T18:54:25.495Z,39.30
2023-02-11T18:56:52.540Z,37.22
2023-02-11T18:59:19.563Z,34.15
2023-02-11T19:01:46.952Z,41.05
2023-02-11T19:04:19.751Z,35.50
2023-02-11T19:06:48.705Z,33.45
2023-02-11T19:09:17.028Z,37.35
2023-02-11T19:11:47.201Z,41.97
2023-02-11T19:14:15.145Z,36.50
2023-02-11T19:16:43.805Z,37.38
2023-02-11T19:19:11.069Z,37.85
2023-02-11T19:21:38.317Z,36.65
2023-02-11T19:24:08.845Z,40.22
2023-02-11T19:26:36.088Z,38.42
2023-02-11T19:29:03.290Z,39.15
2023-02-11T19:31:32.159Z,39.83
2023-02-11T19:33:59.799Z,40.70
2023-02-11T19:36:26.846Z,45.70
2023-02-11T19:38:54.253Z,38.45
2023-02-11T19:41:23.092Z,39.53
2023-02-11T19:43:52.805Z,42.13
2023-02-11T19:46:29.611Z,40.50
2023-02-11T19:48:57.124Z,38.35
2023-02-11T19:51:24.162Z,39.78
2023-02-11T19:53:51.429Z,40.58
2023-02-11T19:56:20.711Z,39.22
2023-02-11T19:58:47.906Z,38.13
2023-02-11T20:01:16.356Z,41.63
2023-02-11T20:03:43.530Z,39.33
2023-02-11T20:06:17.908Z,40.15
2023-02-11T20:08:45.031Z,42.00
2023-02-11T20:11:13.607Z,42.42
2023-02-11T20:13:40.829Z,42.65
2023-02-11T20:16:09.065Z,40.15
2023-02-11T20:18:37.089Z,36.65
2023-02-11T20:21:08.117Z,41.50
2023-02-11T20:23:36.017Z,43.72
2023-02-11T20:26:10.275Z,39.50
2023-02-11T20:28:37.444Z,38.95
2023-02-11T20:31:05.152Z,40.50
2023-02-11T20:33:32.624Z,39.85
2023-02-11T20:36:00.445Z,40.67
2023-02-11T20:38:27.556Z,39.83
2023-02-11T20:40:55.132Z,41.50
2023-02-11T20:43:22.870Z,41.08
2023-02-11T20:45:50.310Z,38.97
2023-02-11T20:48:17.626Z,40.28
2023-02-11T20:50:47.997Z,41.30
2023-02-11T20:53:15.672Z,39.25
2023-02-11T20:55:42.690Z,36.00
2023-02-11T20:58:09.779Z,38.30
2023-02-11T21:00:37.281Z,39.20
2023-02-11T21:03:05.015Z,44.90
2023-02-11T21:05:32.120Z,39.58
2023-02-11T21:07:59.134Z,37.92
2023-02-11T21:10:27.255Z,44.55
2023-02-11T21:12:54.427Z,40.97
2023-02-11T21:15:23.770Z,40.05
2023-02-11T21:17:51.292Z,38.75
2023-02-11T21:20:18.908Z,35.15
2023-02-11T21:22:45.938Z,36.40
2023-02-11T21:25:13.017Z,34.67
2023-02-11T21:27:40.104Z,34.67
2023-02-11T21:30:07.756Z,40.00
2023-02-11T21:32:34.875Z,36.67
2023-02-11T21:35:02.464Z,33.72
2023-02-11T21:37:29.599Z,33.58
2023-02-11T21:39:56.621Z,38.20
2023-02-11T21:42:23.677Z,38.17
2023-02-11T21:44:50.720Z,34.03
2023-02-11T21:47:17.780Z,35.80
2023-02-11T21:49:44.825Z,37.65
2023-02-11T21:52:11.860Z,36.28
2023-02-11T21:54:38.898Z,35.05
2023-02-11T21:57:05.917Z,39.17
2023-02-11T21:59:32.988Z,37.03
2023-02-11T22:02:00.070Z,40.42
2023-02-11T22:04:27.376Z,36.38
2023-02-11T22:06:54.480Z,37.65
2023-02-11T22:09:21.559Z,44.35
2023-02-11T22:11:49.553Z,37.55
2023-02-11T22:14:17.064Z,41.20
2023-02-11T22:16:47.881Z,42.47
2023-02-11T22:19:15.157Z,34.13
2023-02-11T22:21:43.320Z,39.83
2023-02-11T22:24:10.384Z,36.72
2023-02-11T22:26:37.626Z,39.85
2023-02-11T22:29:04.768Z,37.83
2023-02-11T22:31:33.740Z,40.20
2023-02-11T22:34:01.014Z,38.35
2023-02-11T22:36:35.514Z,38.45
2023-02-11T22:39:03.821Z,38.67
2023-02-11T22:41:31.204Z,40.72
2023-02-11T22:43:58.218Z,44.45
2023-02-11T22:46:25.272Z,37.53
2023-02-11T22:48:52.597Z,40.45
2023-02-11T22:51:21.802Z,37.65
2023-02-11T22:53:56.395Z,36.60
2023-02-11T22:56:23.686Z,38.85
2023-02-11T22:58:51.594Z,38.95
2023-02-11T23:01:18.805Z,35.60
2023-02-11T23:03:46.262Z,37.72
2023-02-11T23:06:13.284Z,35.78
2023-02-11T23:08:41.201Z,38.45
2023-02-11T23:11:12.971Z,37.50
2023-02-11T23:13:40.959Z,36.33
2023-02-11T23:16:09.630Z,32.78
2023-02-11T23:18:36.971Z,33.78
2023-02-11T23:21:11.284Z,34.20
2023-02-11T23:23:39.457Z,33.25
2023-02-11T23:26:09.682Z,37.28
2023-02-11T23:28:36.762Z,31.80
2023-02-11T23:31:13.375Z,34.00
2023-02-11T23:33:40.423Z,35.65
2023-02-11T23:36:07.665Z,36.67
2023-02-11T23:38:34.676Z,33.30
2023-02-11T23:41:02.056Z,34.17
2023-02-11T23:43:29.071Z,33.20
2023-02-11T23:45:56.405Z,33.95
2023-02-11T23:48:23.812Z,33.78
2023-02-11T23:50:50.856Z,35.78
2023-02-11T23:53:17.852Z,36.65
2023-02-11T23:55:45.721Z,33.22
2023-02-11T23:58:13.759Z,33.40
